sensor_id;sensor_type;location;lat;lon;timestamp;pressure;altitude;pressure_sealevel;temperature;humidity
13209;BME280;6669;42.678;23.332;2023-04-30T00:00:44;94246.25;;;11.16;100.00
13209;BME280;6669;42.678;23.332;2023-04-30T00:03:12;94241.78;;;11.09;100.00
13209;BME280;6669;42.678;23.332;2023-04-30T00:05:41;94244.63;;;11.15;100.00
13209;BME280;6669;42.678;23.332;2023-04-30T00:08:09;94245.81;;;11.12;100.00
13209;BME280;6669;42.678;23.332;2023-04-30T00:10:37;94248.22;;;11.13;100.00
13209;BME280;6669;42.678;23.332;2023-04-30T00:13:05;94239.44;;;11.15;100.00
13209;BME280;6669;42.678;23.332;2023-04-30T00:15:34;94245.03;;;11.11;100.00
13209;BME280;6669;42.678;23.332;2023-04-30T00:18:02;94240.63;;;11.12;100.00
13209;BME280;6669;42.678;23.332;2023-04-30T00:20:31;94247.81;;;11.10;100.00
13209;BME280;6669;42.678;23.332;2023-04-30T00:23:01;94249.97;;;11.06;100.00
13209;BME280;6669;42.678;23.332;2023-04-30T00:25:29;94246.13;;;11.02;100.00
13209;BME280;6669;42.678;23.332;2023-04-30T00:27:57;94230.19;;;10.90;100.00
13209;BME280;6669;42.678;23.332;2023-04-30T00:30:25;94241.50;;;10.83;100.00
13209;BME280;6669;42.678;23.332;2023-04-30T00:32:53;94240.47;;;10.62;100.00
13209;BME280;6669;42.678;23.332;2023-04-30T00:35:21;94245.84;;;10.60;100.00
13209;BME280;6669;42.678;23.332;2023-04-30T00:37:49;94247.75;;;10.52;100.00
13209;BME280;6669;42.678;23.332;2023-04-30T00:40:19;94253.47;;;10.47;100.00
13209;BME280;6669;42.678;23.332;2023-04-30T00:42:47;94243.00;;;10.40;100.00
13209;BME280;6669;42.678;23.332;2023-04-30T00:45:15;94245.78;;;10.39;100.00
13209;BME280;6669;42.678;23.332;2023-04-30T00:47:47;94241.97;;;10.26;100.00
13209;BME280;6669;42.678;23.332;2023-04-30T00:50:16;94241.34;;;10.24;100.00
13209;BME280;6669;42.678;23.332;2023-04-30T00:52:44;94239.38;;;10.26;100.00
13209;BME280;6669;42.678;23.332;2023-04-30T00:55:12;94240.28;;;10.19;100.00
13209;BME280;6669;42.678;23.332;2023-04-30T00:57:42;94231.13;;;10.08;100.00
13209;BME280;6669;42.678;23.332;2023-04-30T01:00:11;94236.50;;;10.06;100.00
13209;BME280;6669;42.678;23.332;2023-04-30T01:02:39;94236.88;;;10.03;100.00
13209;BME280;6669;42.678;23.332;2023-04-30T01:05:08;94243.47;;;9.91;100.00
13209;BME280;6669;42.678;23.332;2023-04-30T01:07:36;94239.06;;;9.91;100.00
13209;BME280;6669;42.678;23.332;2023-04-30T01:10:10;94235.88;;;9.89;100.00
13209;BME280;6669;42.678;23.332;2023-04-30T01:12:54;94238.88;;;9.78;100.00
13209;BME280;6669;42.678;23.332;2023-04-30T01:15:27;94236.94;;;9.80;100.00
13209;BME280;6669;42.678;23.332;2023-04-30T01:18:02;94233.16;;;9.68;100.00
13209;BME280;6669;42.678;23.332;2023-04-30T01:20:32;94240.75;;;9.69;100.00
13209;BME280;6669;42.678;23.332;2023-04-30T01:23:08;94235.97;;;9.58;100.00
13209;BME280;6669;42.678;23.332;2023-04-30T01:25:49;94241.06;;;9.51;100.00
13209;BME280;6669;42.678;23.332;2023-04-30T01:28:21;94224.19;;;9.32;100.00
13209;BME280;6669;42.678;23.332;2023-04-30T01:30:50;94239.22;;;9.37;100.00
13209;BME280;6669;42.678;23.332;2023-04-30T01:33:18;94240.44;;;9.26;100.00
13209;BME280;6669;42.678;23.332;2023-04-30T01:39:14;94236.69;;;9.05;100.00
13209;BME280;6669;42.678;23.332;2023-04-30T01:41:50;94234.38;;;8.87;100.00
13209;BME280;6669;42.678;23.332;2023-04-30T01:44:43;94242.28;;;8.94;100.00
13209;BME280;6669;42.678;23.332;2023-04-30T01:47:19;94242.59;;;8.91;100.00
13209;BME280;6669;42.678;23.332;2023-04-30T01:49:56;94236.63;;;8.90;100.00
13209;BME280;6669;42.678;23.332;2023-04-30T01:52:31;94240.28;;;8.96;100.00
13209;BME280;6669;42.678;23.332;2023-04-30T01:55:08;94244.31;;;8.98;100.00
13209;BME280;6669;42.678;23.332;2023-04-30T01:57:40;94230.56;;;8.98;100.00
13209;BME280;6669;42.678;23.332;2023-04-30T02:00:11;94239.75;;;9.09;100.00
13209;BME280;6669;42.678;23.332;2023-04-30T02:02:40;94239.41;;;9.12;100.00
13209;BME280;6669;42.678;23.332;2023-04-30T02:05:08;94241.53;;;9.08;100.00
13209;BME280;6669;42.678;23.332;2023-04-30T02:07:38;94228.56;;;9.08;100.00
13209;BME280;6669;42.678;23.332;2023-04-30T02:10:08;94237.59;;;9.12;100.00
13209;BME280;6669;42.678;23.332;2023-04-30T02:12:37;94234.31;;;9.19;100.00
13209;BME280;6669;42.678;23.332;2023-04-30T02:15:07;94238.63;;;9.26;100.00
13209;BME280;6669;42.678;23.332;2023-04-30T02:17:36;94230.84;;;9.26;100.00
13209;BME280;6669;42.678;23.332;2023-04-30T02:20:05;94236.06;;;9.26;100.00
13209;BME280;6669;42.678;23.332;2023-04-30T02:22:34;94231.59;;;9.20;100.00
13209;BME280;6669;42.678;23.332;2023-04-30T02:25:02;94232.38;;;9.21;100.00
13209;BME280;6669;42.678;23.332;2023-04-30T02:27:31;94233.41;;;9.11;100.00
13209;BME280;6669;42.678;23.332;2023-04-30T02:30:00;94235.38;;;9.09;100.00
13209;BME280;6669;42.678;23.332;2023-04-30T02:32:28;94228.09;;;9.05;100.00
13209;BME280;6669;42.678;23.332;2023-04-30T02:34:57;94227.28;;;9.04;100.00
13209;BME280;6669;42.678;23.332;2023-04-30T02:37:25;94231.03;;;9.02;100.00
13209;BME280;6669;42.678;23.332;2023-04-30T02:39:53;94236.06;;;9.03;100.00
13209;BME280;6669;42.678;23.332;2023-04-30T02:42:22;94222.47;;;9.01;100.00
13209;BME280;6669;42.678;23.332;2023-04-30T02:44:50;94233.41;;;9.11;100.00
13209;BME280;6669;42.678;23.332;2023-04-30T02:47:18;94227.94;;;9.06;100.00
13209;BME280;6669;42.678;23.332;2023-04-30T02:49:46;94239.75;;;9.09;100.00
13209;BME280;6669;42.678;23.332;2023-04-30T02:52:15;94239.41;;;9.12;100.00
13209;BME280;6669;42.678;23.332;2023-04-30T02:54:43;94238.06;;;9.16;100.00
13209;BME280;6669;42.678;23.332;2023-04-30T02:57:12;94236.75;;;9.20;100.00
13209;BME280;6669;42.678;23.332;2023-04-30T02:59:40;94244.19;;;9.23;100.00
13209;BME280;6669;42.678;23.332;2023-04-30T03:02:11;94241.78;;;9.22;100.00
13209;BME280;6669;42.678;23.332;2023-04-30T03:04:39;94238.63;;;9.26;100.00
13209;BME280;6669;42.678;23.332;2023-04-30T03:07:07;94248.03;;;9.27;100.00
13209;BME280;6669;42.678;23.332;2023-04-30T03:09:37;94243.69;;;9.28;100.00
13209;BME280;6669;42.678;23.332;2023-04-30T03:12:05;94250.63;;;9.27;100.00
13209;BME280;6669;42.678;23.332;2023-04-30T03:14:33;94247.53;;;9.32;100.00
13209;BME280;6669;42.678;23.332;2023-04-30T03:17:01;94254.97;;;9.35;100.00
13209;BME280;6669;42.678;23.332;2023-04-30T03:19:29;94256.09;;;9.32;100.00
13209;BME280;6669;42.678;23.332;2023-04-30T03:21:57;94261.44;;;9.39;100.00
13209;BME280;6669;42.678;23.332;2023-04-30T03:24:25;94260.31;;;9.33;100.00
13209;BME280;6669;42.678;23.332;2023-04-30T03:26:54;94263.66;;;9.42;100.00
13209;BME280;6669;42.678;23.332;2023-04-30T03:29:22;94254.91;;;9.43;100.00
13209;BME280;6669;42.678;23.332;2023-04-30T03:31:50;94257.22;;;9.38;100.00
13209;BME280;6669;42.678;23.332;2023-04-30T03:34:18;94253.81;;;9.38;100.00
13209;BME280;6669;42.678;23.332;2023-04-30T03:36:46;94252.72;;;9.32;100.00
13209;BME280;6669;42.678;23.332;2023-04-30T03:39:14;94259.13;;;9.44;100.00
13209;BME280;6669;42.678;23.332;2023-04-30T03:41:42;94263.84;;;9.41;100.00
13209;BME280;6669;42.678;23.332;2023-04-30T03:44:11;94272.09;;;9.44;100.00
13209;BME280;6669;42.678;23.332;2023-04-30T03:46:41;94271.91;;;9.46;100.00
13209;BME280;6669;42.678;23.332;2023-04-30T03:49:10;94271.28;;;9.44;100.00
13209;BME280;6669;42.678;23.332;2023-04-30T03:51:39;94272.03;;;9.53;100.00
13209;BME280;6669;42.678;23.332;2023-04-30T03:54:07;94280.78;;;9.52;100.00
13209;BME280;6669;42.678;23.332;2023-04-30T03:56:36;94279.81;;;9.53;100.00
13209;BME280;6669;42.678;23.332;2023-04-30T03:59:04;94284.47;;;9.57;100.00
13209;BME280;6669;42.678;23.332;2023-04-30T04:01:34;94280.38;;;9.63;100.00
13209;BME280;6669;42.678;23.332;2023-04-30T04:04:02;94278.06;;;9.68;100.00
13209;BME280;6669;42.678;23.332;2023-04-30T04:06:30;94280.94;;;9.73;100.00
13209;BME280;6669;42.678;23.332;2023-04-30T04:08:58;94288.84;;;9.80;100.00
13209;BME280;6669;42.678;23.332;2023-04-30T04:11:26;94289.47;;;9.82;100.00
13209;BME280;6669;42.678;23.332;2023-04-30T04:13:54;94284.00;;;9.77;100.00
13209;BME280;6669;42.678;23.332;2023-04-30T04:16:22;94291.44;;;9.80;100.00
13209;BME280;6669;42.678;23.332;2023-04-30T04:18:51;94289.81;;;9.79;100.00
13209;BME280;6669;42.678;23.332;2023-04-30T04:21:20;94290.28;;;9.82;100.00
13209;BME280;6669;42.678;23.332;2023-04-30T04:23:48;94297.63;;;9.79;100.00
13209;BME280;6669;42.678;23.332;2023-04-30T04:26:16;94295.13;;;9.86;100.00
13209;BME280;6669;42.678;23.332;2023-04-30T04:28:45;94296.31;;;9.75;100.00
13209;BME280;6669;42.678;23.332;2023-04-30T04:31:13;94299.09;;;9.73;100.00
13209;BME280;6669;42.678;23.332;2023-04-30T04:33:43;94289.97;;;9.77;100.00
13209;BME280;6669;42.678;23.332;2023-04-30T04:36:12;94296.91;;;9.85;100.00
13209;BME280;6669;42.678;23.332;2023-04-30T04:38:40;94298.63;;;9.93;100.00
13209;BME280;6669;42.678;23.332;2023-04-30T04:41:09;94311.63;;;9.93;100.00
13209;BME280;6669;42.678;23.332;2023-04-30T04:43:37;94305.41;;;9.94;100.00
13209;BME280;6669;42.678;23.332;2023-04-30T04:46:05;94308.41;;;10.06;100.00
13209;BME280;6669;42.678;23.332;2023-04-30T04:48:36;94305.63;;;10.07;100.00
13209;BME280;6669;42.678;23.332;2023-04-30T04:51:04;94299.38;;;10.17;100.00
13209;BME280;6669;42.678;23.332;2023-04-30T04:53:33;94310.69;;;10.24;100.00
13209;BME280;6669;42.678;23.332;2023-04-30T04:56:02;94312.31;;;10.25;100.00
13209;BME280;6669;42.678;23.332;2023-04-30T04:58:30;94319.69;;;10.36;100.00
13209;BME280;6669;42.678;23.332;2023-04-30T05:00:58;94321.63;;;10.34;100.00
13209;BME280;6669;42.678;23.332;2023-04-30T05:03:27;94330.34;;;10.41;100.00
13209;BME280;6669;42.678;23.332;2023-04-30T05:05:55;94323.44;;;10.49;100.00
13209;BME280;6669;42.678;23.332;2023-04-30T05:08:23;94320.13;;;10.55;100.00
13209;BME280;6669;42.678;23.332;2023-04-30T05:10:52;94320.56;;;10.43;100.00
13209;BME280;6669;42.678;23.332;2023-04-30T05:13:20;94320.97;;;10.55;100.00
13209;BME280;6669;42.678;23.332;2023-04-30T05:15:50;94319.88;;;10.50;100.00
13209;BME280;6669;42.678;23.332;2023-04-30T05:18:18;94324.44;;;10.62;100.00
13209;BME280;6669;42.678;23.332;2023-04-30T05:20:46;94329.28;;;10.66;100.00
13209;BME280;6669;42.678;23.332;2023-04-30T05:23:14;94324.97;;;10.73;100.00
13209;BME280;6669;42.678;23.332;2023-04-30T05:25:42;94323.97;;;10.89;100.00
13209;BME280;6669;42.678;23.332;2023-04-30T05:28:12;94318.69;;;10.97;100.00
13209;BME280;6669;42.678;23.332;2023-04-30T05:30:40;94319.69;;;10.96;100.00
13209;BME280;6669;42.678;23.332;2023-04-30T05:33:08;94326.91;;;11.01;100.00
13209;BME280;6669;42.678;23.332;2023-04-30T05:35:37;94328.97;;;11.05;100.00
13209;BME280;6669;42.678;23.332;2023-04-30T05:38:05;94328.59;;;11.08;100.00
13209;BME280;6669;42.678;23.332;2023-04-30T05:40:33;94329.56;;;11.22;100.00
13209;BME280;6669;42.678;23.332;2023-04-30T05:43:01;94321.75;;;11.22;100.00
13209;BME280;6669;42.678;23.332;2023-04-30T05:45:30;94321.41;;;11.25;100.00
13209;BME280;6669;42.678;23.332;2023-04-30T05:47:58;94321.22;;;11.27;100.00
13209;BME280;6669;42.678;23.332;2023-04-30T05:50:27;94323.72;;;11.35;100.00
13209;BME280;6669;42.678;23.332;2023-04-30T05:52:55;94316.53;;;11.37;100.00
13209;BME280;6669;42.678;23.332;2023-04-30T05:55:23;94324.09;;;11.54;100.00
13209;BME280;6669;42.678;23.332;2023-04-30T05:57:51;94323.13;;;11.55;100.00
13209;BME280;6669;42.678;23.332;2023-04-30T06:00:19;94325.22;;;11.66;100.00
13209;BME280;6669;42.678;23.332;2023-04-30T06:02:48;94332.78;;;11.61;100.00
13209;BME280;6669;42.678;23.332;2023-04-30T06:05:16;94333.47;;;11.70;100.00
13209;BME280;6669;42.678;23.332;2023-04-30T06:07:44;94329.69;;;11.72;100.00
13209;BME280;6669;42.678;23.332;2023-04-30T06:10:12;94331.38;;;11.80;100.00
13209;BME280;6669;42.678;23.332;2023-04-30T06:12:40;94340.13;;;11.72;100.00
13209;BME280;6669;42.678;23.332;2023-04-30T06:15:08;94338.75;;;11.76;100.00
13209;BME280;6669;42.678;23.332;2023-04-30T06:17:36;94347.78;;;11.81;100.00
13209;BME280;6669;42.678;23.332;2023-04-30T06:20:07;94346.13;;;11.73;100.00
13209;BME280;6669;42.678;23.332;2023-04-30T06:22:35;94340.03;;;11.87;100.00
13209;BME280;6669;42.678;23.332;2023-04-30T06:25:03;94344.34;;;11.95;100.00
13209;BME280;6669;42.678;23.332;2023-04-30T06:27:32;94345.44;;;12.07;100.00
13209;BME280;6669;42.678;23.332;2023-04-30T06:29:59;94344.78;;;11.99;100.00
13209;BME280;6669;42.678;23.332;2023-04-30T06:32:27;94352.03;;;12.03;100.00
13209;BME280;6669;42.678;23.332;2023-04-30T06:34:55;94356.09;;;12.13;100.00
13209;BME280;6669;42.678;23.332;2023-04-30T06:37:24;94359.31;;;12.08;100.00
13209;BME280;6669;42.678;23.332;2023-04-30T06:39:52;94357.00;;;11.98;100.00
13209;BME280;6669;42.678;23.332;2023-04-30T06:42:21;94358.34;;;11.94;100.00
13209;BME280;6669;42.678;23.332;2023-04-30T06:44:49;94353.75;;;11.96;100.00
13209;BME280;6669;42.678;23.332;2023-04-30T06:47:17;94349.03;;;12.06;100.00
13209;BME280;6669;42.678;23.332;2023-04-30T06:49:45;94346.94;;;12.17;100.00
13209;BME280;6669;42.678;23.332;2023-04-30T06:52:13;94351.63;;;12.28;100.00
13209;BME280;6669;42.678;23.332;2023-04-30T06:54:42;94356.56;;;12.45;100.00
13209;BME280;6669;42.678;23.332;2023-04-30T06:57:10;94359.81;;;12.53;100.00
13209;BME280;6669;42.678;23.332;2023-04-30T06:59:38;94354.81;;;12.52;100.00
13209;BME280;6669;42.678;23.332;2023-04-30T07:02:06;94351.03;;;12.61;100.00
13209;BME280;6669;42.678;23.332;2023-04-30T07:04:34;94341.94;;;12.85;100.00
13209;BME280;6669;42.678;23.332;2023-04-30T07:07:02;94352.66;;;12.97;100.00
13209;BME280;6669;42.678;23.332;2023-04-30T07:09:30;94351.97;;;13.23;100.00
13209;BME280;6669;42.678;23.332;2023-04-30T07:11:59;94355.88;;;13.41;100.00
13209;BME280;6669;42.678;23.332;2023-04-30T07:14:27;94359.69;;;13.45;100.00
13209;BME280;6669;42.678;23.332;2023-04-30T07:16:55;94357.16;;;13.65;100.00
13209;BME280;6669;42.678;23.332;2023-04-30T07:19:23;94355.38;;;13.66;100.00
13209;BME280;6669;42.678;23.332;2023-04-30T07:21:52;94356.19;;;13.80;100.00
13209;BME280;6669;42.678;23.332;2023-04-30T07:24:20;94349.94;;;13.81;100.00
13209;BME280;6669;42.678;23.332;2023-04-30T07:26:48;94350.56;;;13.89;100.00
13209;BME280;6669;42.678;23.332;2023-04-30T07:29:17;94350.97;;;13.93;100.00
13209;BME280;6669;42.678;23.332;2023-04-30T07:31:45;94354.19;;;13.88;100.00
13209;BME280;6669;42.678;23.332;2023-04-30T07:34:13;94359.22;;;13.97;100.00
13209;BME280;6669;42.678;23.332;2023-04-30T07:36:41;94356.81;;;14.09;100.00
13209;BME280;6669;42.678;23.332;2023-04-30T07:39:09;94349.78;;;14.02;100.00
13209;BME280;6669;42.678;23.332;2023-04-30T07:41:38;94358.66;;;14.28;100.00
13209;BME280;6669;42.678;23.332;2023-04-30T07:44:05;94358.63;;;14.42;100.00
13209;BME280;6669;42.678;23.332;2023-04-30T07:46:35;94355.22;;;14.34;100.00
13209;BME280;6669;42.678;23.332;2023-04-30T07:49:03;94355.81;;;14.36;100.00
13209;BME280;6669;42.678;23.332;2023-04-30T07:51:31;94359.25;;;14.37;100.00
13209;BME280;6669;42.678;23.332;2023-04-30T07:53:59;94353.00;;;14.25;100.00
13209;BME280;6669;42.678;23.332;2023-04-30T07:56:27;94364.28;;;14.32;100.00
13209;BME280;6669;42.678;23.332;2023-04-30T07:58:55;94365.88;;;14.19;100.00
13209;BME280;6669;42.678;23.332;2023-04-30T08:01:23;94358.44;;;14.30;100.00
13209;BME280;6669;42.678;23.332;2023-04-30T08:03:53;94352.59;;;14.48;100.00
13209;BME280;6669;42.678;23.332;2023-04-30T08:06:21;94355.63;;;14.71;100.00
13209;BME280;6669;42.678;23.332;2023-04-30T08:08:49;94364.03;;;14.87;100.00
13209;BME280;6669;42.678;23.332;2023-04-30T08:11:17;94367.84;;;14.91;100.00
13209;BME280;6669;42.678;23.332;2023-04-30T08:13:47;94360.00;;;14.91;100.00
13209;BME280;6669;42.678;23.332;2023-04-30T08:16:15;94354.19;;;14.89;100.00
13209;BME280;6669;42.678;23.332;2023-04-30T08:18:43;94385.59;;;14.82;100.00
13209;BME280;6669;42.678;23.332;2023-04-30T08:21:14;94369.88;;;14.55;100.00
13209;BME280;6669;42.678;23.332;2023-04-30T08:23:43;94369.47;;;14.52;100.00
13209;BME280;6669;42.678;23.332;2023-04-30T08:26:11;94378.16;;;14.66;100.00
13209;BME280;6669;42.678;23.332;2023-04-30T08:28:39;94376.75;;;14.57;100.00
13209;BME280;6669;42.678;23.332;2023-04-30T08:31:07;94371.31;;;14.51;100.00
13209;BME280;6669;42.678;23.332;2023-04-30T08:33:35;94372.13;;;14.59;100.00
13209;BME280;6669;42.678;23.332;2023-04-30T08:36:03;94367.88;;;14.58;100.00
13209;BME280;6669;42.678;23.332;2023-04-30T08:38:32;94370.28;;;14.86;100.00
13209;BME280;6669;42.678;23.332;2023-04-30T08:41:04;94361.78;;;15.04;100.00
13209;BME280;6669;42.678;23.332;2023-04-30T08:43:35;94365.59;;;15.15;100.00
13209;BME280;6669;42.678;23.332;2023-04-30T08:46:04;94360.09;;;15.23;100.00
13209;BME280;6669;42.678;23.332;2023-04-30T08:48:33;94361.50;;;15.32;100.00
13209;BME280;6669;42.678;23.332;2023-04-30T08:51:02;94357.59;;;15.48;100.00
13209;BME280;6669;42.678;23.332;2023-04-30T08:53:35;94365.84;;;15.52;100.00
13209;BME280;6669;42.678;23.332;2023-04-30T08:56:04;94344.88;;;15.52;100.00
13209;BME280;6669;42.678;23.332;2023-04-30T08:58:32;94343.97;;;15.72;100.00
13209;BME280;6669;42.678;23.332;2023-04-30T09:01:00;94348.19;;;16.11;100.00
13209;BME280;6669;42.678;23.332;2023-04-30T09:03:29;94352.97;;;15.89;100.00
13209;BME280;6669;42.678;23.332;2023-04-30T09:05:58;94333.66;;;15.83;100.00
13209;BME280;6669;42.678;23.332;2023-04-30T09:08:44;94337.66;;;15.86;100.00
13209;BME280;6669;42.678;23.332;2023-04-30T09:11:20;94337.09;;;16.09;100.00
13209;BME280;6669;42.678;23.332;2023-04-30T09:13:49;94319.81;;;16.27;100.00
13209;BME280;6669;42.678;23.332;2023-04-30T09:16:19;94321.22;;;16.29;100.00
13209;BME280;6669;42.678;23.332;2023-04-30T09:18:47;94332.03;;;16.40;100.00
13209;BME280;6669;42.678;23.332;2023-04-30T09:21:16;94314.53;;;16.33;95.64
13209;BME280;6669;42.678;23.332;2023-04-30T09:23:55;94316.34;;;16.33;95.49
13209;BME280;6669;42.678;23.332;2023-04-30T09:26:30;94316.38;;;16.26;97.02
13209;BME280;6669;42.678;23.332;2023-04-30T09:28:58;94318.69;;;16.16;98.62
13209;BME280;6669;42.678;23.332;2023-04-30T09:31:27;94307.44;;;15.83;100.00
13209;BME280;6669;42.678;23.332;2023-04-30T09:33:55;94300.72;;;16.20;98.59
13209;BME280;6669;42.678;23.332;2023-04-30T09:36:23;94300.25;;;16.48;99.07
13209;BME280;6669;42.678;23.332;2023-04-30T09:38:51;94301.75;;;16.62;93.28
13209;BME280;6669;42.678;23.332;2023-04-30T09:41:25;94295.94;;;16.97;94.85
13209;BME280;6669;42.678;23.332;2023-04-30T09:43:54;94293.69;;;17.50;92.79
13209;BME280;6669;42.678;23.332;2023-04-30T09:46:29;94294.22;;;17.71;86.08
13209;BME280;6669;42.678;23.332;2023-04-30T09:48:58;94287.69;;;17.61;82.55
13209;BME280;6669;42.678;23.332;2023-04-30T09:51:27;94298.88;;;17.69;82.80
13209;BME280;6669;42.678;23.332;2023-04-30T09:53:55;94288.66;;;17.91;83.41
13209;BME280;6669;42.678;23.332;2023-04-30T09:56:25;94283.75;;;17.94;80.49
13209;BME280;6669;42.678;23.332;2023-04-30T09:58:54;94276.00;;;18.00;80.98
13209;BME280;6669;42.678;23.332;2023-04-30T10:01:25;94276.72;;;18.30;81.53
13209;BME280;6669;42.678;23.332;2023-04-30T10:03:53;94280.59;;;18.52;77.46
13209;BME280;6669;42.678;23.332;2023-04-30T10:06:22;94271.66;;;18.76;76.84
13209;BME280;6669;42.678;23.332;2023-04-30T10:08:54;94256.19;;;18.92;76.50
13209;BME280;6669;42.678;23.332;2023-04-30T10:11:29;94259.19;;;18.95;74.06
13209;BME280;6669;42.678;23.332;2023-04-30T10:14:02;94267.13;;;19.13;71.92
13209;BME280;6669;42.678;23.332;2023-04-30T10:16:36;94259.06;;;18.67;70.94
13209;BME280;6669;42.678;23.332;2023-04-30T10:19:12;94281.31;;;18.47;72.07
13209;BME280;6669;42.678;23.332;2023-04-30T10:21:41;94280.06;;;17.84;73.13
13209;BME280;6669;42.678;23.332;2023-04-30T10:24:12;94277.31;;;17.78;76.65
13209;BME280;6669;42.678;23.332;2023-04-30T10:26:42;94288.81;;;17.65;78.10
13209;BME280;6669;42.678;23.332;2023-04-30T10:29:12;94315.34;;;17.15;83.67
13209;BME280;6669;42.678;23.332;2023-04-30T10:31:42;94306.88;;;16.50;98.81
13209;BME280;6669;42.678;23.332;2023-04-30T10:34:18;94331.97;;;15.57;100.00
13209;BME280;6669;42.678;23.332;2023-04-30T10:36:53;94336.31;;;14.32;100.00
13209;BME280;6669;42.678;23.332;2023-04-30T10:39:22;94354.59;;;13.79;100.00
13209;BME280;6669;42.678;23.332;2023-04-30T10:42:01;94341.16;;;13.33;100.00
13209;BME280;6669;42.678;23.332;2023-04-30T10:44:31;94327.78;;;13.01;100.00
13209;BME280;6669;42.678;23.332;2023-04-30T10:46:59;94328.31;;;13.25;100.00
13209;BME280;6669;42.678;23.332;2023-04-30T10:49:28;94319.41;;;13.75;100.00
13209;BME280;6669;42.678;23.332;2023-04-30T10:51:58;94313.78;;;14.51;100.00
13209;BME280;6669;42.678;23.332;2023-04-30T10:54:29;94313.16;;;15.67;100.00
13209;BME280;6669;42.678;23.332;2023-04-30T10:57:12;94314.34;;;16.72;100.00
13209;BME280;6669;42.678;23.332;2023-04-30T10:59:49;94302.94;;;17.22;100.00
13209;BME280;6669;42.678;23.332;2023-04-30T11:02:18;94301.69;;;17.25;100.00
13209;BME280;6669;42.678;23.332;2023-04-30T11:05:09;94303.00;;;17.64;100.00
13209;BME280;6669;42.678;23.332;2023-04-30T11:07:46;94297.44;;;18.15;100.00
13209;BME280;6669;42.678;23.332;2023-04-30T11:10:17;94293.50;;;18.77;100.00
13209;BME280;6669;42.678;23.332;2023-04-30T11:12:50;94288.69;;;19.67;99.81
13209;BME280;6669;42.678;23.332;2023-04-30T11:15:19;94294.69;;;20.60;85.20
13209;BME280;6669;42.678;23.332;2023-04-30T11:17:48;94291.47;;;20.57;75.77
13209;BME280;6669;42.678;23.332;2023-04-30T11:20:19;94290.38;;;20.19;75.72
13209;BME280;6669;42.678;23.332;2023-04-30T11:22:47;94296.94;;;19.71;83.21
13209;BME280;6669;42.678;23.332;2023-04-30T11:25:18;94284.19;;;19.51;80.53
13209;BME280;6669;42.678;23.332;2023-04-30T11:27:46;94287.59;;;19.80;78.06
13209;BME280;6669;42.678;23.332;2023-04-30T11:30:17;94279.50;;;19.53;78.86
13209;BME280;6669;42.678;23.332;2023-04-30T11:32:47;94280.00;;;18.97;77.74
13209;BME280;6669;42.678;23.332;2023-04-30T11:35:16;94283.66;;;18.96;81.78
13209;BME280;6669;42.678;23.332;2023-04-30T11:37:46;94282.53;;;19.33;82.53
13209;BME280;6669;42.678;23.332;2023-04-30T11:40:15;94274.91;;;19.48;82.53
13209;BME280;6669;42.678;23.332;2023-04-30T11:42:43;94269.91;;;19.92;82.44
13209;BME280;6669;42.678;23.332;2023-04-30T11:45:13;94286.38;;;20.51;83.92
13209;BME280;6669;42.678;23.332;2023-04-30T11:47:46;94285.00;;;21.54;81.60
13209;BME280;6669;42.678;23.332;2023-04-30T11:50:15;94286.81;;;22.35;75.41
13209;BME280;6669;42.678;23.332;2023-04-30T11:52:48;94281.03;;;22.86;72.41
13209;BME280;6669;42.678;23.332;2023-04-30T11:55:17;94282.75;;;23.13;72.93
13209;BME280;6669;42.678;23.332;2023-04-30T11:57:47;94280.28;;;23.49;72.76
13209;BME280;6669;42.678;23.332;2023-04-30T12:00:17;94274.44;;;23.58;72.47
13209;BME280;6669;42.678;23.332;2023-04-30T12:02:48;94275.03;;;23.80;67.39
13209;BME280;6669;42.678;23.332;2023-04-30T12:05:18;94268.59;;;23.56;67.60
13209;BME280;6669;42.678;23.332;2023-04-30T12:07:48;94274.28;;;23.11;67.76
13209;BME280;6669;42.678;23.332;2023-04-30T12:10:18;94277.19;;;22.57;67.85
13209;BME280;6669;42.678;23.332;2023-04-30T12:12:47;94270.31;;;21.63;73.45
13209;BME280;6669;42.678;23.332;2023-04-30T12:15:19;94270.34;;;21.19;75.99
13209;BME280;6669;42.678;23.332;2023-04-30T12:17:54;94276.69;;;20.39;81.17
13209;BME280;6669;42.678;23.332;2023-04-30T12:20:24;94283.59;;;19.77;83.71
13209;BME280;6669;42.678;23.332;2023-04-30T12:22:53;94293.72;;;19.11;87.89
13209;BME280;6669;42.678;23.332;2023-04-30T12:25:22;94299.47;;;18.60;96.56
13209;BME280;6669;42.678;23.332;2023-04-30T12:27:51;94306.13;;;18.39;100.00
13209;BME280;6669;42.678;23.332;2023-04-30T12:30:23;94308.84;;;18.09;100.00
13209;BME280;6669;42.678;23.332;2023-04-30T12:32:57;94310.66;;;17.78;100.00
13209;BME280;6669;42.678;23.332;2023-04-30T12:35:27;94310.50;;;17.61;100.00
13209;BME280;6669;42.678;23.332;2023-04-30T12:38:01;94307.75;;;17.25;100.00
13209;BME280;6669;42.678;23.332;2023-04-30T12:40:29;94312.06;;;17.20;100.00
13209;BME280;6669;42.678;23.332;2023-04-30T12:43:01;94303.59;;;16.99;100.00
13209;BME280;6669;42.678;23.332;2023-04-30T12:45:46;94303.97;;;17.03;100.00
13209;BME280;6669;42.678;23.332;2023-04-30T12:48:19;94310.97;;;17.27;100.00
13209;BME280;6669;42.678;23.332;2023-04-30T12:50:51;94300.09;;;17.54;100.00
13209;BME280;6669;42.678;23.332;2023-04-30T12:53:19;94294.31;;;18.18;100.00
13209;BME280;6669;42.678;23.332;2023-04-30T12:56:06;94305.22;;;18.81;100.00
13209;BME280;6669;42.678;23.332;2023-04-30T12:58:35;94298.78;;;19.01;100.00
13209;BME280;6669;42.678;23.332;2023-04-30T13:01:04;94303.75;;;19.55;100.00
13209;BME280;6669;42.678;23.332;2023-04-30T13:03:34;94311.31;;;19.80;100.00
13209;BME280;6669;42.678;23.332;2023-04-30T13:06:02;94306.41;;;19.55;100.00
13209;BME280;6669;42.678;23.332;2023-04-30T13:08:32;94303.50;;;18.51;100.00
13209;BME280;6669;42.678;23.332;2023-04-30T13:11:15;94291.81;;;18.35;100.00